Time;durP1;ratioP1;P1;durP2;ratioP2;P2;SDS_P1;SDS_P2;PMS_P1;PMS_P2;Temp;Humidity;BMP_temperature;BMP_pressure;BME280_temperature;BME280_humidity;BME280_pressure;Samples;Min_cycle;Max_cycle;Signal;HPM_P1;HPM_P2
2023/05/20 00:01:22;;;;;;;58.00;2.70;;;;;;;;;;5073979;28;20471;-68
2023/05/20 00:03:49;;;;;;;60.70;4.50;;;;;;;;;;5073944;28;20963;-68
2023/05/20 00:06:17;;;;;;;57.30;2.40;;;;;;;;;;5074131;28;20450;-69
2023/05/20 00:08:44;;;;;;;57.30;2.70;;;;;;;;;;5072961;28;20942;-68
2023/05/20 00:11:11;;;;;;;57.13;2.43;;;;;;;;;;5072501;28;20487;-68
2023/05/20 00:13:39;;;;;;;57.57;3.00;;;;;;;;;;5073548;28;20943;-69
2023/05/20 00:16:06;;;;;;;57.20;2.37;;;;;;;;;;5073653;28;20958;-69
2023/05/20 00:18:33;;;;;;;57.50;2.57;;;;;;;;;;5073302;28;20451;-68
2023/05/20 00:21:00;;;;;;;57.90;3.23;;;;;;;;;;5073756;28;20461;-68
2023/05/20 00:23:28;;;;;;;58.57;3.27;;;;;;;;;;5073948;28;20447;-69
2023/05/20 00:25:56;;;;;;;57.13;2.37;;;;;;;;;;5073412;28;20447;-68
2023/05/20 00:28:23;;;;;;;57.20;2.40;;;;;;;;;;5073620;28;20481;-68
2023/05/20 00:30:50;;;;;;;58.33;3.47;;;;;;;;;;5072813;28;20491;-68
2023/05/20 00:33:17;;;;;;;57.77;2.73;;;;;;;;;;5073458;28;20552;-69
2023/05/20 00:35:44;;;;;;;57.47;2.83;;;;;;;;;;5073340;28;20447;-68
2023/05/20 00:38:11;;;;;;;57.23;2.50;;;;;;;;;;5073264;28;20479;-69
2023/05/20 00:40:40;;;;;;;57.30;2.60;;;;;;;;;;5072532;28;20467;-68
2023/05/20 00:43:07;;;;;;;57.07;2.50;;;;;;;;;;5073622;28;20449;-68
2023/05/20 00:45:34;;;;;;;57.30;2.73;;;;;;;;;;5073296;28;20443;-69
2023/05/20 00:48:02;;;;;;;58.07;2.97;;;;;;;;;;5073074;28;20570;-69
2023/05/20 00:50:30;;;;;;;58.37;3.47;;;;;;;;;;5072082;28;20939;-68
2023/05/20 00:52:57;;;;;;;57.93;3.27;;;;;;;;;;5072923;28;20447;-68
2023/05/20 00:55:24;;;;;;;57.10;2.70;;;;;;;;;;5072753;28;20513;-68
2023/05/20 00:57:53;;;;;;;57.50;3.20;;;;;;;;;;5073048;28;20454;-68
2023/05/20 01:00:20;;;;;;;59.00;2.80;;;;;;;;;;5072307;28;20454;-69
2023/05/20 01:02:48;;;;;;;57.30;2.70;;;;;;;;;;5072816;28;20462;-68
2023/05/20 01:05:15;;;;;;;57.57;2.80;;;;;;;;;;5073368;28;20451;-69
2023/05/20 01:07:42;;;;;;;58.30;4.03;;;;;;;;;;5072790;28;20447;-69
2023/05/20 01:10:10;;;;;;;58.20;3.80;;;;;;;;;;5071819;28;20454;-68
2023/05/20 01:12:39;;;;;;;57.57;2.50;;;;;;;;;;5072444;28;20486;-68
2023/05/20 01:15:10;;;;;;;57.80;2.80;;;;;;;;;;5072487;28;20501;-68
2023/05/20 01:17:38;;;;;;;57.87;2.50;;;;;;;;;;5072466;28;20451;-69
2023/05/20 01:20:09;;;;;;;57.10;2.63;;;;;;;;;;5071501;28;20993;-69
2023/05/20 01:22:38;;;;;;;57.30;2.63;;;;;;;;;;5072535;28;20440;-68
2023/05/20 01:25:06;;;;;;;56.93;2.60;;;;;;;;;;5072200;28;20827;-69
2023/05/20 01:27:33;;;;;;;56.97;2.20;;;;;;;;;;5072187;28;20450;-69
2023/05/20 01:30:00;;;;;;;57.10;2.43;;;;;;;;;;5071968;28;20443;-69
2023/05/20 01:32:29;;;;;;;57.17;2.80;;;;;;;;;;5072229;28;20576;-69
2023/05/20 01:34:56;;;;;;;57.30;2.70;;;;;;;;;;5071908;28;21000;-69
2023/05/20 01:37:25;;;;;;;57.10;2.40;;;;;;;;;;5072153;28;20940;-69
2023/05/20 01:39:54;;;;;;;57.47;3.20;;;;;;;;;;5071586;28;20449;-69
2023/05/20 01:42:21;;;;;;;58.10;3.27;;;;;;;;;;5070599;28;20553;-68
2023/05/20 01:44:49;;;;;;;57.07;2.30;;;;;;;;;;5071044;28;20813;-68
2023/05/20 01:47:16;;;;;;;57.23;2.30;;;;;;;;;;5072050;28;20469;-68
2023/05/20 01:49:44;;;;;;;57.00;2.53;;;;;;;;;;5071324;28;20449;-69
2023/05/20 01:52:12;;;;;;;57.20;2.33;;;;;;;;;;5071332;28;20491;-68
2023/05/20 01:54:39;;;;;;;57.07;2.20;;;;;;;;;;5071790;28;20448;-68
2023/05/20 01:57:07;;;;;;;57.60;3.27;;;;;;;;;;5071697;28;20456;-68
2023/05/20 01:59:34;;;;;;;56.83;2.10;;;;;;;;;;5071295;28;20455;-69
2023/05/20 02:02:02;;;;;;;57.97;3.10;;;;;;;;;;5071897;28;20463;-68
2023/05/20 02:04:29;;;;;;;57.30;2.70;;;;;;;;;;5071611;28;20955;-69
2023/05/20 02:06:56;;;;;;;57.27;3.07;;;;;;;;;;5071657;28;20457;-68
2023/05/20 02:09:23;;;;;;;56.97;2.30;;;;;;;;;;5070964;28;20445;-69
2023/05/20 02:11:50;;;;;;;58.57;4.50;;;;;;;;;;5071538;28;20536;-68
2023/05/20 02:14:18;;;;;;;56.97;2.40;;;;;;;;;;5071662;28;20821;-68
2023/05/20 02:16:46;;;;;;;57.20;3.03;;;;;;;;;;5071500;28;20451;-68
2023/05/20 02:19:18;;;;;;;56.93;2.20;;;;;;;;;;5070747;28;20448;-69
2023/05/20 02:21:47;;;;;;;57.40;2.80;;;;;;;;;;5071333;28;20467;-68
2023/05/20 02:24:15;;;;;;;57.60;2.40;;;;;;;;;;5071034;28;20469;-68
2023/05/20 02:26:43;;;;;;;57.40;2.70;;;;;;;;;;5071676;28;20626;-68
2023/05/20 02:29:10;;;;;;;57.37;3.13;;;;;;;;;;5070488;28;20494;-68
2023/05/20 02:31:38;;;;;;;58.00;2.23;;;;;;;;;;5071028;28;20498;-68
2023/05/20 02:34:05;;;;;;;57.17;2.63;;;;;;;;;;5070683;28;20459;-68
2023/05/20 02:36:33;;;;;;;57.70;3.00;;;;;;;;;;5071281;28;20721;-68
2023/05/20 02:39:00;;;;;;;57.00;2.30;;;;;;;;;;5070809;28;20446;-68
2023/05/20 02:41:27;;;;;;;57.20;2.50;;;;;;;;;;5071002;28;20927;-68
2023/05/20 02:43:54;;;;;;;57.50;3.60;;;;;;;;;;5070986;28;20443;-68
2023/05/20 02:46:21;;;;;;;56.87;2.43;;;;;;;;;;5070997;28;20463;-69
2023/05/20 02:48:50;;;;;;;57.37;2.70;;;;;;;;;;5070290;28;20453;-68
2023/05/20 02:51:17;;;;;;;57.17;2.30;;;;;;;;;;5071262;28;20491;-69
2023/05/20 02:53:44;;;;;;;57.20;2.50;;;;;;;;;;5071233;28;20467;-69
2023/05/20 02:56:12;;;;;;;57.30;2.40;;;;;;;;;;5071141;28;20451;-69
2023/05/20 02:58:39;;;;;;;58.80;3.00;;;;;;;;;;5070599;28;20497;-69
2023/05/20 03:01:06;;;;;;;57.67;3.03;;;;;;;;;;5070765;28;21026;-68
2023/05/20 03:03:33;;;;;;;57.43;2.43;;;;;;;;;;5071029;28;20483;-69
2023/05/20 03:06:02;;;;;;;57.60;3.20;;;;;;;;;;5071071;28;20482;-68
2023/05/20 03:08:29;;;;;;;58.37;2.80;;;;;;;;;;5070860;28;20449;-68
2023/05/20 03:10:56;;;;;;;58.20;3.00;;;;;;;;;;5070642;28;20483;-68
2023/05/20 03:13:23;;;;;;;57.20;2.50;;;;;;;;;;5071226;28;20444;-69
2023/05/20 03:15:50;;;;;;;57.50;2.97;;;;;;;;;;5070714;28;20952;-68
2023/05/20 03:18:18;;;;;;;57.57;2.97;;;;;;;;;;5070965;28;20513;-68
2023/05/20 03:20:45;;;;;;;57.23;2.40;;;;;;;;;;5070211;28;20854;-68
2023/05/20 03:23:13;;;;;;;57.77;2.83;;;;;;;;;;5070881;28;20440;-68
2023/05/20 03:25:41;;;;;;;58.57;3.30;;;;;;;;;;5070602;28;20956;-68
2023/05/20 03:28:08;;;;;;;58.27;3.50;;;;;;;;;;5070882;28;20455;-69
2023/05/20 03:30:35;;;;;;;57.20;2.37;;;;;;;;;;5069834;28;20467;-69
2023/05/20 03:33:02;;;;;;;57.37;2.30;;;;;;;;;;5070515;28;21003;-69
2023/05/20 03:35:29;;;;;;;57.57;2.70;;;;;;;;;;5070863;28;20451;-68
2023/05/20 03:37:58;;;;;;;57.70;3.10;;;;;;;;;;5070439;28;21072;-69
2023/05/20 03:40:26;;;;;;;57.40;2.90;;;;;;;;;;5070009;28;20549;-68
2023/05/20 03:42:53;;;;;;;57.10;2.40;;;;;;;;;;5070476;28;20940;-68
2023/05/20 03:45:21;;;;;;;57.17;2.70;;;;;;;;;;5072568;28;20445;-68
2023/05/20 03:47:49;;;;;;;57.30;2.57;;;;;;;;;;5074442;28;20451;-68
2023/05/20 03:50:16;;;;;;;57.20;2.70;;;;;;;;;;5073641;28;20473;-68
2023/05/20 03:52:43;;;;;;;57.50;3.03;;;;;;;;;;5074347;28;20484;-69
2023/05/20 03:55:11;;;;;;;57.53;2.77;;;;;;;;;;5074232;28;21050;-69
2023/05/20 03:57:39;;;;;;;57.17;2.40;;;;;;;;;;5073987;28;20447;-68
2023/05/20 04:00:10;;;;;;;57.47;2.80;;;;;;;;;;5073638;28;20458;-69
2023/05/20 04:02:38;;;;;;;57.47;2.70;;;;;;;;;;5074059;28;20471;-68
2023/05/20 04:05:07;;;;;;;57.90;3.30;;;;;;;;;;5073820;28;20542;-68
2023/05/20 04:07:34;;;;;;;57.30;2.70;;;;;;;;;;5073990;28;20494;-68
2023/05/20 04:10:01;;;;;;;57.50;2.93;;;;;;;;;;5073053;28;20451;-68
2023/05/20 04:12:29;;;;;;;57.23;2.60;;;;;;;;;;5073732;28;20487;-69
2023/05/20 04:15:00;;;;;;;59.07;3.37;;;;;;;;;;5073943;28;20496;-69
2023/05/20 04:17:28;;;;;;;57.27;2.70;;;;;;;;;;5073903;28;20512;-68
2023/05/20 04:19:56;;;;;;;57.00;2.43;;;;;;;;;;5072873;28;20447;-69
2023/05/20 04:22:23;;;;;;;57.13;2.33;;;;;;;;;;5073870;28;20467;-68
2023/05/20 04:24:50;;;;;;;57.43;2.53;;;;;;;;;;5073428;28;20839;-68
2023/05/20 04:27:17;;;;;;;56.87;2.27;;;;;;;;;;5073513;28;20455;-69
2023/05/20 04:29:45;;;;;;;57.20;2.57;;;;;;;;;;5072877;28;20448;-69
2023/05/20 04:32:14;;;;;;;57.47;2.50;;;;;;;;;;5073405;28;20501;-68
2023/05/20 04:34:42;;;;;;;57.50;2.80;;;;;;;;;;5073558;28;20453;-69
2023/05/20 04:37:09;;;;;;;56.87;1.97;;;;;;;;;;5073512;28;20539;-68
2023/05/20 04:39:37;;;;;;;57.37;2.57;;;;;;;;;;5072656;28;20854;-69
2023/05/20 04:42:05;;;;;;;56.80;2.53;;;;;;;;;;5073222;28;21176;-69
2023/05/20 04:44:32;;;;;;;56.97;2.27;;;;;;;;;;5073521;28;20448;-69
2023/05/20 04:46:59;;;;;;;57.70;3.07;;;;;;;;;;5073090;28;20452;-68
2023/05/20 04:49:28;;;;;;;56.70;2.17;;;;;;;;;;5072634;28;20455;-68
2023/05/20 04:51:56;;;;;;;57.07;2.20;;;;;;;;;;5073098;28;20487;-68
2023/05/20 04:54:24;;;;;;;57.20;2.50;;;;;;;;;;5073238;28;20825;-69
2023/05/20 04:56:51;;;;;;;59.77;4.20;;;;;;;;;;5072562;28;20447;-69
2023/05/20 04:59:18;;;;;;;57.10;2.97;;;;;;;;;;5072181;28;20458;-69
2023/05/20 05:01:45;;;;;;;56.97;2.20;;;;;;;;;;5072821;28;20463;-69
2023/05/20 05:04:12;;;;;;;56.93;2.40;;;;;;;;;;5073061;28;20878;-68
2023/05/20 05:06:40;;;;;;;56.87;2.37;;;;;;;;;;5072892;28;20455;-68
2023/05/20 05:09:08;;;;;;;57.00;2.60;;;;;;;;;;5072171;28;20471;-68
2023/05/20 05:11:35;;;;;;;57.00;2.50;;;;;;;;;;5072640;28;21038;-68
2023/05/20 05:14:03;;;;;;;57.27;2.70;;;;;;;;;;5072794;28;20446;-68
2023/05/20 05:16:30;;;;;;;58.07;2.60;;;;;;;;;;5072603;28;20451;-69
2023/05/20 05:18:57;;;;;;;58.80;5.37;;;;;;;;;;5071656;28;20458;-69
2023/05/20 05:21:24;;;;;;;58.00;3.27;;;;;;;;;;5072625;28;20474;-69
2023/05/20 05:23:52;;;;;;;60.37;3.73;;;;;;;;;;5072202;28;20451;-68
2023/05/20 05:26:19;;;;;;;57.70;3.43;;;;;;;;;;5072693;28;20432;-69
2023/05/20 05:28:46;;;;;;;57.37;2.97;;;;;;;;;;5071648;28;20444;-68
2023/05/20 05:31:14;;;;;;;56.83;2.50;;;;;;;;;;5072413;28;20473;-68
2023/05/20 05:33:41;;;;;;;57.70;3.70;;;;;;;;;;5071947;28;20486;-69
2023/05/20 05:36:08;;;;;;;57.70;2.63;;;;;;;;;;5072061;28;20447;-69
2023/05/20 05:38:35;;;;;;;57.40;3.00;;;;;;;;;;5071679;28;20444;-70
2023/05/20 05:41:04;;;;;;;56.97;2.77;;;;;;;;;;5072195;28;20517;-70
2023/05/20 05:43:31;;;;;;;57.80;2.67;;;;;;;;;;5072102;28;20954;-69
2023/05/20 05:45:58;;;;;;;56.97;2.53;;;;;;;;;;5072383;28;20448;-70
2023/05/20 05:48:25;;;;;;;59.27;5.27;;;;;;;;;;5071823;28;20447;-69
2023/05/20 05:50:52;;;;;;;57.20;2.70;;;;;;;;;;5071863;28;20467;-69
2023/05/20 05:53:19;;;;;;;57.13;2.80;;;;;;;;;;5072038;28;20490;-69
2023/05/20 05:55:47;;;;;;;56.83;2.20;;;;;;;;;;5071853;28;20944;-69
2023/05/20 05:58:15;;;;;;;56.87;2.50;;;;;;;;;;5071853;28;20788;-69
2023/05/20 06:00:43;;;;;;;57.30;2.87;;;;;;;;;;5070844;28;20475;-69
2023/05/20 06:03:10;;;;;;;57.20;2.63;;;;;;;;;;5071879;28;20466;-69
2023/05/20 06:05:37;;;;;;;56.60;2.20;;;;;;;;;;5071590;28;20451;-69
2023/05/20 06:08:04;;;;;;;57.10;2.43;;;;;;;;;;5070898;28;20447;-69
2023/05/20 06:10:31;;;;;;;57.17;2.67;;;;;;;;;;5070964;28;20481;-69
2023/05/20 06:12:59;;;;;;;57.10;2.40;;;;;;;;;;5071931;28;20859;-69
2023/05/20 06:15:28;;;;;;;57.90;4.53;;;;;;;;;;5071608;28;20461;-69
2023/05/20 06:17:55;;;;;;;58.13;2.83;;;;;;;;;;5071670;28;20543;-69
2023/05/20 06:20:22;;;;;;;57.40;2.77;;;;;;;;;;5070733;28;20454;-69
2023/05/20 06:22:49;;;;;;;58.43;2.90;;;;;;;;;;5071452;28;20562;-69
2023/05/20 06:25:16;;;;;;;57.93;3.53;;;;;;;;;;5071282;28;20554;-69
2023/05/20 06:27:43;;;;;;;57.30;3.20;;;;;;;;;;5071254;28;20987;-69
2023/05/20 06:30:11;;;;;;;56.80;2.20;;;;;;;;;;5070742;28;20451;-69
2023/05/20 06:32:39;;;;;;;57.57;2.93;;;;;;;;;;5071430;28;21021;-69
2023/05/20 06:35:07;;;;;;;58.60;2.90;;;;;;;;;;5071421;28;20444;-69
2023/05/20 06:37:34;;;;;;;57.10;2.40;;;;;;;;;;5071414;28;20457;-69
2023/05/20 06:40:01;;;;;;;57.00;2.57;;;;;;;;;;5070478;28;20473;-69
2023/05/20 06:42:28;;;;;;;59.20;2.70;;;;;;;;;;5070904;28;20464;-67
2023/05/20 06:44:55;;;;;;;56.53;2.63;;;;;;;;;;5071399;28;20456;-68
2023/05/20 06:47:22;;;;;;;56.57;2.00;;;;;;;;;;5071269;28;20447;-67
2023/05/20 06:49:51;;;;;;;57.10;2.43;;;;;;;;;;5070766;28;20466;-67
2023/05/20 06:52:18;;;;;;;56.90;2.20;;;;;;;;;;5070511;28;20995;-67
2023/05/20 06:54:45;;;;;;;57.60;2.57;;;;;;;;;;5070947;28;20452;-67
2023/05/20 06:57:13;;;;;;;56.67;2.30;;;;;;;;;;5070898;28;20447;-67
2023/05/20 06:59:40;;;;;;;60.10;3.73;;;;;;;;;;5070157;28;20975;-67
2023/05/20 07:02:08;;;;;;;57.17;2.90;;;;;;;;;;5070924;28;20467;-68
2023/05/20 07:04:35;;;;;;;57.33;2.93;;;;;;;;;;5071541;28;20462;-67
2023/05/20 07:07:03;;;;;;;56.80;2.30;;;;;;;;;;5070939;28;20451;-68
2023/05/20 07:09:30;;;;;;;59.37;3.30;;;;;;;;;;5070237;28;20825;-67
2023/05/20 07:11:57;;;;;;;57.63;2.47;;;;;;;;;;5070959;28;20463;-67
2023/05/20 07:14:25;;;;;;;56.93;2.27;;;;;;;;;;5070887;28;20914;-67
2023/05/20 07:16:52;;;;;;;57.27;3.13;;;;;;;;;;5070944;28;20449;-67
2023/05/20 07:19:19;;;;;;;57.20;2.30;;;;;;;;;;5070902;28;20880;-67
2023/05/20 07:21:48;;;;;;;58.13;2.57;;;;;;;;;;5074819;28;20467;-69
2023/05/20 07:24:17;;;;;;;56.60;2.20;;;;;;;;;;5074695;28;20481;-69
2023/05/20 07:26:44;;;;;;;56.63;1.97;;;;;;;;;;5074878;28;20447;-69
2023/05/20 07:29:11;;;;;;;56.67;2.10;;;;;;;;;;5074041;28;20447;-69
2023/05/20 07:31:38;;;;;;;57.40;2.87;;;;;;;;;;5074632;28;20467;-69
2023/05/20 07:34:06;;;;;;;56.90;2.10;;;;;;;;;;5074692;28;20482;-69
2023/05/20 07:36:33;;;;;;;57.97;2.33;;;;;;;;;;5074411;28;20455;-69
2023/05/20 07:39:00;;;;;;;57.10;2.40;;;;;;;;;;5074310;28;20444;-70
2023/05/20 07:41:29;;;;;;;58.37;2.33;;;;;;;;;;5074459;28;20483;-69
2023/05/20 07:43:56;;;;;;;57.17;2.60;;;;;;;;;;5074371;28;20454;-69
2023/05/20 07:46:23;;;;;;;57.10;2.67;;;;;;;;;;5074169;28;20939;-69
2023/05/20 07:48:50;;;;;;;57.10;2.50;;;;;;;;;;5073755;28;20447;-69
2023/05/20 07:51:17;;;;;;;57.03;2.70;;;;;;;;;;5073940;28;20994;-69
2023/05/20 07:53:44;;;;;;;57.20;2.90;;;;;;;;;;5074160;28;20487;-70
2023/05/20 07:56:11;;;;;;;56.57;2.00;;;;;;;;;;5074075;28;20450;-69
2023/05/20 07:58:41;;;;;;;56.90;2.53;;;;;;;;;;5073719;28;20447;-70
2023/05/20 08:01:08;;;;;;;57.10;2.40;;;;;;;;;;5074306;28;20475;-69
2023/05/20 08:03:35;;;;;;;57.20;2.70;;;;;;;;;;5074118;28;20454;-69
2023/05/20 08:06:03;;;;;;;56.97;2.20;;;;;;;;;;5073946;28;20952;-70
2023/05/20 08:08:30;;;;;;;57.20;2.70;;;;;;;;;;5073806;28;20443;-69
2023/05/20 08:10:57;;;;;;;57.23;2.70;;;;;;;;;;5073641;28;20991;-70
2023/05/20 08:13:24;;;;;;;56.87;2.37;;;;;;;;;;5073928;28;20486;-70
2023/05/20 08:15:54;;;;;;;57.17;2.50;;;;;;;;;;5073978;28;20455;-70
2023/05/20 08:18:22;;;;;;;57.20;2.37;;;;;;;;;;5073444;28;20974;-69
2023/05/20 08:20:49;;;;;;;57.10;2.53;;;;;;;;;;5073140;28;20467;-70
2023/05/20 08:23:16;;;;;;;60.07;3.80;;;;;;;;;;5073767;28;20959;-70
2023/05/20 08:25:45;;;;;;;57.20;2.80;;;;;;;;;;5073555;28;20463;-69
2023/05/20 08:28:12;;;;;;;57.03;2.53;;;;;;;;;;5073730;28;20454;-70
2023/05/20 08:30:40;;;;;;;56.77;2.70;;;;;;;;;;5072470;28;20835;-69
2023/05/20 08:33:08;;;;;;;56.90;2.10;;;;;;;;;;5073080;28;20897;-69
2023/05/20 08:35:38;;;;;;;57.70;2.77;;;;;;;;;;5073530;28;20940;-68
2023/05/20 08:38:05;;;;;;;56.90;2.30;;;;;;;;;;5073144;28;20447;-68
2023/05/20 08:40:35;;;;;;;56.77;2.23;;;;;;;;;;5072826;28;20466;-68
2023/05/20 08:43:02;;;;;;;56.70;2.50;;;;;;;;;;5073501;28;20459;-68
2023/05/20 08:45:32;;;;;;;56.87;2.43;;;;;;;;;;5073315;28;20913;-68
2023/05/20 08:47:59;;;;;;;57.10;2.90;;;;;;;;;;5073201;28;20444;-68
2023/05/20 08:50:27;;;;;;;57.30;2.60;;;;;;;;;;5072603;28;20471;-68
2023/05/20 08:52:55;;;;;;;56.90;2.23;;;;;;;;;;5073175;28;20668;-68
2023/05/20 08:55:25;;;;;;;56.50;2.43;;;;;;;;;;5073302;28;20498;-68
2023/05/20 08:57:53;;;;;;;56.87;2.53;;;;;;;;;;5073020;28;20534;-68
2023/05/20 09:00:22;;;;;;;57.43;2.73;;;;;;;;;;5072114;28;20451;-68
2023/05/20 09:02:50;;;;;;;57.13;2.30;;;;;;;;;;5072969;28;20546;-68
2023/05/20 09:05:18;;;;;;;57.13;2.60;;;;;;;;;;5072782;28;20845;-68
2023/05/20 09:07:47;;;;;;;56.87;2.60;;;;;;;;;;5072830;28;20455;-68
2023/05/20 09:10:14;;;;;;;57.13;2.60;;;;;;;;;;5071704;28;20448;-68
2023/05/20 09:12:41;;;;;;;57.40;2.73;;;;;;;;;;5072852;28;20849;-68
2023/05/20 09:15:09;;;;;;;57.03;2.30;;;;;;;;;;5073121;28;20483;-68
2023/05/20 09:17:36;;;;;;;57.50;2.27;;;;;;;;;;5072621;28;20452;-68
2023/05/20 09:20:07;;;;;;;57.33;3.23;;;;;;;;;;5071850;28;20440;-68
2023/05/20 09:22:34;;;;;;;57.40;3.03;;;;;;;;;;5072287;28;20467;-67
2023/05/20 09:25:03;;;;;;;56.87;2.43;;;;;;;;;;5072255;28;20466;-68
2023/05/20 09:27:30;;;;;;;60.40;2.57;;;;;;;;;;5072585;28;20501;-68
2023/05/20 09:29:57;;;;;;;56.90;2.40;;;;;;;;;;5071535;28;20455;-68
2023/05/20 09:32:27;;;;;;;57.10;2.40;;;;;;;;;;5072381;28;20477;-68
2023/05/20 09:34:54;;;;;;;57.27;1.97;;;;;;;;;;5072375;28;20846;-68
2023/05/20 09:37:22;;;;;;;57.90;2.67;;;;;;;;;;5072059;28;20455;-68
2023/05/20 09:39:55;;;;;;;56.40;2.50;;;;;;;;;;5071365;28;20957;-68
2023/05/20 09:42:27;;;;;;;57.00;2.33;;;;;;;;;;5072125;28;20507;-68
2023/05/20 09:44:56;;;;;;;57.50;2.43;;;;;;;;;;5071970;28;20988;-68
2023/05/20 09:47:24;;;;;;;56.97;2.43;;;;;;;;;;5071882;28;20489;-68
2023/05/20 09:49:53;;;;;;;56.87;2.40;;;;;;;;;;5071408;28;20451;-68
2023/05/20 09:52:21;;;;;;;57.40;2.40;;;;;;;;;;5071949;28;20467;-68
2023/05/20 09:54:50;;;;;;;56.60;1.90;;;;;;;;;;5071874;28;20487;-68
2023/05/20 09:57:17;;;;;;;56.97;2.10;;;;;;;;;;5071740;28;20439;-68
2023/05/20 09:59:47;;;;;;;56.70;2.30;;;;;;;;;;5071012;28;20443;-68
2023/05/20 10:02:14;;;;;;;56.80;2.10;;;;;;;;;;5071614;28;20471;-68
2023/05/20 10:04:44;;;;;;;56.70;2.20;;;;;;;;;;5071760;28;20447;-68
2023/05/20 10:07:27;;;;;;;56.47;2.10;;;;;;;;;;5071743;28;20454;-68
2023/05/20 10:09:58;;;;;;;57.77;2.40;;;;;;;;;;5070925;28;20516;-68
2023/05/20 10:12:32;;;;;;;57.27;2.33;;;;;;;;;;5071376;28;20482;-68
2023/05/20 10:15:05;;;;;;;57.00;2.07;;;;;;;;;;5071577;28;20470;-68
2023/05/20 10:17:38;;;;;;;57.40;2.70;;;;;;;;;;5072060;28;20871;-68
2023/05/20 10:20:10;;;;;;;56.37;2.20;;;;;;;;;;5071070;28;20439;-69
2023/05/20 10:22:37;;;;;;;56.50;2.37;;;;;;;;;;5071577;28;20459;-68
2023/05/20 10:25:06;;;;;;;56.97;2.00;;;;;;;;;;5071374;28;20505;-68
2023/05/20 10:27:43;;;;;;;57.30;2.93;;;;;;;;;;5071215;28;20961;-68
2023/05/20 10:30:17;;;;;;;57.00;2.30;;;;;;;;;;5070862;28;20846;-68
2023/05/20 10:32:49;;;;;;;58.10;3.03;;;;;;;;;;5071269;28;20439;-68
2023/05/20 10:35:21;;;;;;;57.00;2.10;;;;;;;;;;5071375;28;20463;-68
2023/05/20 10:37:48;;;;;;;57.10;2.50;;;;;;;;;;5071109;28;20451;-68
2023/05/20 10:40:16;;;;;;;59.40;2.47;;;;;;;;;;5070582;28;20447;-69
2023/05/20 10:42:44;;;;;;;57.60;2.40;;;;;;;;;;5071420;28;20443;-68
2023/05/20 10:45:12;;;;;;;56.50;2.20;;;;;;;;;;5071487;28;20455;-68
2023/05/20 10:47:54;;;;;;;57.53;2.73;;;;;;;;;;5071208;28;20470;-68
2023/05/20 10:50:27;;;;;;;57.33;2.30;;;;;;;;;;5070337;28;20493;-69
2023/05/20 10:52:54;;;;;;;56.97;2.07;;;;;;;;;;5071047;28;20451;-68
2023/05/20 10:55:22;;;;;;;56.67;2.10;;;;;;;;;;5075979;28;20485;-68
2023/05/20 10:57:49;;;;;;;56.57;2.23;;;;;;;;;;5077672;28;20451;-68
2023/05/20 11:00:17;;;;;;;56.73;1.80;;;;;;;;;;5076892;28;20447;-68
2023/05/20 11:02:45;;;;;;;56.80;2.30;;;;;;;;;;5078015;28;20453;-69
2023/05/20 11:05:13;;;;;;;56.73;2.10;;;;;;;;;;5077868;28;20439;-69
2023/05/20 11:07:41;;;;;;;57.10;2.10;;;;;;;;;;5077555;28;20948;-69
2023/05/20 11:10:09;;;;;;;57.20;2.43;;;;;;;;;;5076732;28;20451;-69
2023/05/20 11:12:36;;;;;;;56.67;2.03;;;;;;;;;;5077686;28;20467;-69
2023/05/20 11:15:03;;;;;;;56.90;2.20;;;;;;;;;;5077702;28;20839;-69
2023/05/20 11:17:30;;;;;;;56.90;2.33;;;;;;;;;;5077584;28;20451;-69
2023/05/20 11:19:59;;;;;;;56.83;2.17;;;;;;;;;;5076628;28;20443;-69
2023/05/20 11:22:27;;;;;;;56.97;2.70;;;;;;;;;;5077474;28;20473;-69
2023/05/20 11:24:54;;;;;;;57.20;2.60;;;;;;;;;;5077496;28;20462;-69
2023/05/20 11:27:21;;;;;;;56.60;1.90;;;;;;;;;;5077371;28;20944;-69
2023/05/20 11:29:50;;;;;;;56.80;2.37;;;;;;;;;;5076626;28;20462;-68
2023/05/20 11:32:20;;;;;;;57.10;2.60;;;;;;;;;;5077424;28;21045;-68
2023/05/20 11:34:52;;;;;;;56.57;1.97;;;;;;;;;;5077468;28;20482;-69
2023/05/20 11:37:22;;;;;;;56.73;2.20;;;;;;;;;;5077598;28;20427;-69
2023/05/20 11:39:49;;;;;;;57.67;2.20;;;;;;;;;;5076843;28;20451;-69
2023/05/20 11:42:17;;;;;;;57.10;2.67;;;;;;;;;;5077212;28;20516;-69
2023/05/20 11:44:45;;;;;;;56.60;1.80;;;;;;;;;;5077343;28;20446;-69
2023/05/20 11:47:12;;;;;;;56.87;2.20;;;;;;;;;;5077400;28;20826;-69
2023/05/20 11:49:42;;;;;;;57.00;2.43;;;;;;;;;;5076607;28;20447;-69
2023/05/20 11:52:10;;;;;;;57.10;2.63;;;;;;;;;;5076712;28;20473;-69
2023/05/20 11:54:39;;;;;;;56.70;1.97;;;;;;;;;;5077649;28;20508;-69
2023/05/20 11:57:06;;;;;;;58.33;2.50;;;;;;;;;;5077252;28;21046;-69
2023/05/20 11:59:33;;;;;;;57.47;1.80;;;;;;;;;;5076346;28;20541;-69
2023/05/20 12:02:01;;;;;;;56.60;2.20;;;;;;;;;;5077262;28;20473;-69
2023/05/20 12:04:28;;;;;;;57.53;2.70;;;;;;;;;;5077301;28;20439;-69
2023/05/20 12:06:55;;;;;;;56.90;2.23;;;;;;;;;;5074863;28;20465;-69
2023/05/20 12:09:22;;;;;;;57.70;2.63;;;;;;;;;;5073231;28;20858;-69
2023/05/20 12:11:50;;;;;;;56.60;1.90;;;;;;;;;;5073896;28;20967;-68
2023/05/20 12:14:17;;;;;;;57.30;2.77;;;;;;;;;;5073951;28;20493;-68
2023/05/20 12:16:45;;;;;;;56.40;1.80;;;;;;;;;;5073698;28;20956;-69
2023/05/20 12:19:12;;;;;;;57.50;2.30;;;;;;;;;;5073005;28;20446;-69
2023/05/20 12:21:39;;;;;;;57.17;2.27;;;;;;;;;;5073564;28;20979;-68
2023/05/20 12:24:07;;;;;;;57.07;2.20;;;;;;;;;;5073703;28;20463;-71
2023/05/20 12:26:34;;;;;;;58.23;2.40;;;;;;;;;;5073769;28;20453;-69
2023/05/20 12:29:03;;;;;;;56.73;2.00;;;;;;;;;;5072856;28;20455;-68
2023/05/20 12:31:30;;;;;;;56.80;2.40;;;;;;;;;;5073352;28;20476;-69
2023/05/20 12:33:57;;;;;;;57.00;2.80;;;;;;;;;;5073482;28;20509;-69
2023/05/20 12:36:25;;;;;;;56.80;2.30;;;;;;;;;;5073277;28;20531;-69
2023/05/20 12:38:52;;;;;;;57.30;2.37;;;;;;;;;;5072506;28;20455;-69
2023/05/20 12:41:20;;;;;;;56.37;1.83;;;;;;;;;;5073400;28;20471;-69
2023/05/20 12:43:47;;;;;;;56.47;2.10;;;;;;;;;;5073272;28;20506;-69
2023/05/20 12:46:15;;;;;;;56.80;2.20;;;;;;;;;;5073226;28;20538;-69
2023/05/20 12:48:42;;;;;;;56.77;2.40;;;;;;;;;;5072341;28;20448;-70
2023/05/20 12:51:09;;;;;;;56.40;2.10;;;;;;;;;;5072753;28;20468;-69
2023/05/20 12:53:37;;;;;;;57.33;2.53;;;;;;;;;;5072977;28;20478;-70
2023/05/20 12:56:04;;;;;;;56.27;1.83;;;;;;;;;;5073087;28;20446;-69
2023/05/20 12:58:31;;;;;;;56.60;2.00;;;;;;;;;;5072838;28;20447;-69
2023/05/20 13:00:58;;;;;;;57.17;2.27;;;;;;;;;;5072466;28;20471;-70
2023/05/20 13:03:27;;;;;;;56.87;2.00;;;;;;;;;;5072767;28;20447;-70
2023/05/20 13:05:54;;;;;;;56.50;1.70;;;;;;;;;;5072665;28;21027;-70
2023/05/20 13:08:21;;;;;;;56.70;2.00;;;;;;;;;;5072777;28;20451;-70
2023/05/20 13:10:48;;;;;;;56.70;2.23;;;;;;;;;;5072119;28;20472;-70
2023/05/20 13:13:20;;;;;;;56.30;2.20;;;;;;;;;;5073014;28;20454;-70
2023/05/20 13:15:48;;;;;;;56.63;1.97;;;;;;;;;;5072938;28;20798;-70
2023/05/20 13:18:15;;;;;;;56.27;2.10;;;;;;;;;;5071851;28;20452;-70
2023/05/20 13:20:43;;;;;;;56.37;1.90;;;;;;;;;;5071687;28;20471;-68
2023/05/20 13:23:10;;;;;;;56.70;2.23;;;;;;;;;;5072837;28;20439;-68
2023/05/20 13:25:37;;;;;;;56.70;2.13;;;;;;;;;;5072345;28;20483;-68
2023/05/20 13:28:05;;;;;;;56.50;2.10;;;;;;;;;;5072376;28;20448;-68
2023/05/20 13:30:32;;;;;;;56.70;2.43;;;;;;;;;;5071849;28;20455;-70
2023/05/20 13:32:59;;;;;;;56.97;2.60;;;;;;;;;;5072050;28;20509;-70
2023/05/20 13:35:27;;;;;;;57.27;2.50;;;;;;;;;;5072315;28;20443;-70
2023/05/20 13:37:55;;;;;;;56.50;2.00;;;;;;;;;;5072239;28;20450;-70
2023/05/20 13:40:22;;;;;;;56.90;2.70;;;;;;;;;;5071282;28;20455;-70
2023/05/20 13:42:49;;;;;;;56.90;2.10;;;;;;;;;;5072062;28;20447;-70
2023/05/20 13:45:17;;;;;;;57.00;2.17;;;;;;;;;;5072016;28;20484;-69
2023/05/20 13:47:45;;;;;;;57.53;2.30;;;;;;;;;;5071851;28;20965;-70
2023/05/20 13:50:12;;;;;;;56.70;2.10;;;;;;;;;;5071419;28;20474;-70
2023/05/20 13:52:39;;;;;;;56.70;2.20;;;;;;;;;;5072255;28;20451;-70
2023/05/20 13:55:08;;;;;;;56.43;2.30;;;;;;;;;;5071770;28;20439;-67
2023/05/20 13:57:36;;;;;;;56.87;2.27;;;;;;;;;;5071829;28;20447;-70
2023/05/20 14:00:03;;;;;;;57.17;2.20;;;;;;;;;;5071058;28;20478;-70
2023/05/20 14:02:30;;;;;;;57.40;2.33;;;;;;;;;;5071877;28;20520;-70
2023/05/20 14:04:57;;;;;;;56.70;2.30;;;;;;;;;;5071530;28;20490;-70
2023/05/20 14:07:24;;;;;;;57.37;2.63;;;;;;;;;;5072185;28;20453;-69
2023/05/20 14:09:51;;;;;;;56.90;1.93;;;;;;;;;;5070914;28;20443;-69
2023/05/20 14:12:21;;;;;;;57.40;2.40;;;;;;;;;;5071689;28;20483;-70
2023/05/20 14:14:48;;;;;;;56.73;2.30;;;;;;;;;;5072063;28;20435;-70
2023/05/20 14:17:16;;;;;;;56.30;2.00;;;;;;;;;;5071718;28;20448;-70
2023/05/20 14:19:43;;;;;;;57.13;2.40;;;;;;;;;;5070924;28;20451;-70
2023/05/20 14:22:13;;;;;;;57.80;2.70;;;;;;;;;;5071227;28;20839;-69
2023/05/20 14:24:40;;;;;;;56.67;2.10;;;;;;;;;;5071222;28;20556;-69
2023/05/20 14:27:07;;;;;;;56.40;2.00;;;;;;;;;;5071186;28;20451;-70
2023/05/20 14:29:36;;;;;;;56.57;1.80;;;;;;;;;;5070021;28;20455;-70
2023/05/20 14:32:03;;;;;;;56.60;2.13;;;;;;;;;;5071503;28;20475;-70
2023/05/20 14:34:30;;;;;;;56.80;2.40;;;;;;;;;;5071236;28;20451;-70